createdAt,value
2023-01-28T00:01:16.737Z,98.91
2023-01-28T00:03:43.316Z,99.38
2023-01-28T00:06:13.748Z,99.33
2023-01-28T00:08:41.170Z,99.16
2023-01-28T00:11:09.957Z,98.57
2023-01-28T00:13:36.301Z,97.67
2023-01-28T00:16:05.630Z,97.96
2023-01-28T00:18:32.800Z,96.94
2023-01-28T00:21:10.050Z,97.11
2023-01-28T00:23:38.095Z,96.72
2023-01-28T00:26:07.256Z,97.65
2023-01-28T00:28:33.685Z,98.16
2023-01-28T00:31:06.667Z,97.62
2023-01-28T00:33:33.256Z,96.82
2023-01-28T00:36:01.348Z,97.26
2023-01-28T00:38:28.402Z,96.70
2023-01-28T00:40:55.032Z,97.03
2023-01-28T00:43:22.778Z,97.19
2023-01-28T00:45:50.332Z,96.68
2023-01-28T00:48:16.767Z,96.20
2023-01-28T00:50:44.823Z,96.94
2023-01-28T00:53:11.053Z,97.15
2023-01-28T00:55:37.765Z,97.17
2023-01-28T00:58:03.890Z,96.54
2023-01-28T01:00:30.333Z,96.82
2023-01-28T01:02:56.593Z,97.01
2023-01-28T01:05:23.260Z,97.19
2023-01-28T01:07:49.416Z,96.25
2023-01-28T01:10:18.365Z,97.38
2023-01-28T01:12:49.031Z,97.01
2023-01-28T01:15:17.351Z,97.18
2023-01-28T01:17:46.684Z,96.64
2023-01-28T01:20:16.299Z,96.57
2023-01-28T01:22:42.413Z,97.16
2023-01-28T01:25:09.360Z,97.51
2023-01-28T01:27:35.696Z,97.05
2023-01-28T01:30:02.907Z,96.86
2023-01-28T01:32:31.066Z,96.62
2023-01-28T01:34:57.963Z,96.51
2023-01-28T01:37:25.115Z,96.57
2023-01-28T01:39:51.699Z,96.66
2023-01-28T01:42:17.865Z,96.39
2023-01-28T01:44:58.777Z,97.00
2023-01-28T01:47:43.500Z,96.93
2023-01-28T01:50:30.527Z,96.62
2023-01-28T01:53:10.966Z,96.83
2023-01-28T01:55:40.764Z,97.59
2023-01-28T01:58:11.451Z,97.43
2023-01-28T02:00:39.624Z,97.60
2023-01-28T02:03:06.153Z,96.62
2023-01-28T02:05:32.718Z,96.98
2023-01-28T02:08:18.148Z,97.02
2023-01-28T02:10:46.050Z,96.79
2023-01-28T02:13:13.791Z,96.56
2023-01-28T02:15:40.286Z,96.74
2023-01-28T02:18:06.436Z,96.67
2023-01-28T02:21:03.313Z,97.10
2023-01-28T02:23:38.612Z,97.10
2023-01-28T02:26:14.277Z,96.79
2023-01-28T02:28:48.362Z,97.37
2023-01-28T02:31:18.921Z,97.15
2023-01-28T02:34:14.490Z,97.12
2023-01-28T02:36:48.082Z,96.87
2023-01-28T02:39:41.833Z,97.79
2023-01-28T02:42:33.554Z,96.60
2023-01-28T02:44:59.759Z,96.88
2023-01-28T02:47:45.137Z,96.82
2023-01-28T02:50:15.040Z,97.04
2023-01-28T02:53:19.524Z,97.35
2023-01-28T02:56:01.868Z,96.79
2023-01-28T02:58:50.195Z,97.66
2023-01-28T03:01:24.622Z,97.42
2023-01-28T03:03:57.207Z,97.37
2023-01-28T03:06:35.038Z,97.18
2023-01-28T03:09:21.724Z,96.73
2023-01-28T03:12:12.337Z,97.72
2023-01-28T03:15:00.897Z,96.80
2023-01-28T03:17:54.461Z,96.49
2023-01-28T03:20:42.601Z,95.91
2023-01-28T03:23:32.286Z,95.70
2023-01-28T03:26:22.303Z,96.63
2023-01-28T03:29:08.473Z,96.00
2023-01-28T03:31:54.173Z,95.90
2023-01-28T03:34:40.469Z,96.10
2023-01-28T03:37:08.317Z,96.37
2023-01-28T03:39:35.215Z,96.94
2023-01-28T03:42:06.320Z,96.44
2023-01-28T03:44:50.069Z,97.03
2023-01-28T03:47:24.744Z,96.32
2023-01-28T03:49:54.497Z,96.01
2023-01-28T03:52:31.333Z,96.64
2023-01-28T03:55:26.907Z,95.41
2023-01-28T03:57:53.416Z,95.63
2023-01-28T04:00:21.227Z,95.27
2023-01-28T04:02:47.716Z,96.14
2023-01-28T04:05:19.132Z,95.92
2023-01-28T04:07:50.858Z,96.59
2023-01-28T04:10:21.562Z,96.48
2023-01-28T04:12:57.139Z,96.08
2023-01-28T04:15:24.801Z,96.36
2023-01-28T04:17:51.224Z,94.99
2023-01-28T04:20:25.433Z,95.38
2023-01-28T04:22:52.052Z,94.93
2023-01-28T04:25:20.080Z,95.43
2023-01-28T04:27:46.715Z,96.12
2023-01-28T04:30:19.797Z,95.96
2023-01-28T04:33:04.876Z,95.85
2023-01-28T04:35:49.561Z,96.70
2023-01-28T04:38:34.047Z,95.40
2023-01-28T04:41:26.911Z,94.97
2023-01-28T04:43:55.237Z,94.65
2023-01-28T04:46:24.375Z,94.54
2023-01-28T04:49:01.627Z,94.26
2023-01-28T04:51:48.036Z,94.50
2023-01-28T04:54:32.085Z,94.79
2023-01-28T04:57:01.125Z,94.52
2023-01-28T04:59:27.693Z,95.33
2023-01-28T05:01:53.919Z,95.15
2023-01-28T05:04:21.368Z,95.83
2023-01-28T05:06:47.580Z,94.54
2023-01-28T05:09:16.839Z,94.41
2023-01-28T05:11:43.617Z,93.58
2023-01-28T05:14:10.159Z,93.38
2023-01-28T05:16:55.748Z,92.83
2023-01-28T05:19:22.293Z,93.07
2023-01-28T05:21:48.595Z,92.68
2023-01-28T05:24:25.196Z,93.07
2023-01-28T05:26:52.572Z,92.66
2023-01-28T05:29:19.070Z,92.79
2023-01-28T05:31:47.081Z,91.82
2023-01-28T05:34:14.432Z,91.89
2023-01-28T05:36:40.623Z,92.52
2023-01-28T05:39:22.144Z,91.69
2023-01-28T05:41:48.547Z,91.98
2023-01-28T05:44:15.092Z,92.24
2023-01-28T05:47:07.870Z,91.63
2023-01-28T05:49:53.933Z,91.03
2023-01-28T05:52:55.652Z,92.08
2023-01-28T05:55:27.206Z,90.89
2023-01-28T05:57:53.937Z,91.74
2023-01-28T06:00:23.409Z,90.33
2023-01-28T06:02:53.098Z,92.07
2023-01-28T06:05:20.956Z,90.02
2023-01-28T06:07:47.615Z,90.58
2023-01-28T06:10:17.506Z,91.59
2023-01-28T06:12:44.041Z,90.38
2023-01-28T06:15:29.488Z,90.24
2023-01-28T06:18:12.154Z,90.31
2023-01-28T06:20:38.645Z,91.04
2023-01-28T06:23:05.661Z,91.11
2023-01-28T06:25:32.466Z,90.39
2023-01-28T06:28:03.297Z,90.27
2023-01-28T06:30:29.723Z,90.84
2023-01-28T06:32:56.089Z,91.51
2023-01-28T06:35:23.174Z,90.11
2023-01-28T06:37:49.626Z,88.79
2023-01-28T06:40:16.684Z,90.10
2023-01-28T06:42:43.060Z,88.92
2023-01-28T06:45:09.970Z,90.19
2023-01-28T06:47:38.795Z,89.44
2023-01-28T06:50:06.011Z,89.19
2023-01-28T06:52:32.141Z,88.20
2023-01-28T06:54:58.993Z,88.89
2023-01-28T06:57:25.231Z,88.32
2023-01-28T06:59:51.954Z,88.12
2023-01-28T07:02:18.131Z,89.83
2023-01-28T07:04:44.802Z,89.52
2023-01-28T07:07:10.909Z,88.14
2023-01-28T07:09:37.316Z,88.61
2023-01-28T07:12:04.926Z,87.45
2023-01-28T07:14:32.147Z,88.39
2023-01-28T07:16:58.500Z,88.72
2023-01-28T07:19:24.910Z,88.16
2023-01-28T07:21:51.179Z,87.59
2023-01-28T07:24:17.785Z,87.78
2023-01-28T07:26:44.078Z,88.07
2023-01-28T07:29:10.729Z,88.17
2023-01-28T07:31:37.015Z,88.62
2023-01-28T07:34:03.709Z,88.30
2023-01-28T07:36:29.934Z,87.72
2023-01-28T07:38:56.419Z,88.00
2023-01-28T07:41:22.738Z,86.93
2023-01-28T07:43:49.183Z,86.20
2023-01-28T07:46:16.313Z,86.63
2023-01-28T07:48:42.859Z,87.13
2023-01-28T07:51:09.017Z,86.65
2023-01-28T07:53:35.618Z,87.22
2023-01-28T07:56:02.208Z,87.14
2023-01-28T07:58:28.620Z,86.24
2023-01-28T08:00:58.383Z,85.90
2023-01-28T08:03:26.337Z,86.47
2023-01-28T08:27:09.536Z,86.09
2023-01-28T08:29:35.706Z,85.99
2023-01-28T08:32:02.153Z,85.00
2023-01-28T08:34:28.651Z,84.21
2023-01-28T08:36:55.174Z,85.96
2023-01-28T08:39:21.428Z,84.64
2023-01-28T08:41:47.869Z,83.98
2023-01-28T08:44:14.038Z,84.34
2023-01-28T08:46:40.546Z,83.30
2023-01-28T08:49:06.769Z,83.55
2023-01-28T08:51:33.262Z,83.74
2023-01-28T08:53:59.823Z,84.18
2023-01-28T08:56:26.458Z,83.65
2023-01-28T08:58:53.021Z,83.49
2023-01-28T09:01:19.531Z,83.49
2023-01-28T09:03:45.759Z,83.65
2023-01-28T09:06:12.290Z,83.64
2023-01-28T09:08:38.422Z,82.65
2023-01-28T09:11:04.880Z,83.04
2023-01-28T09:13:31.071Z,82.01
2023-01-28T09:15:57.652Z,81.99
2023-01-28T09:18:23.766Z,81.15
2023-01-28T09:20:50.241Z,80.96
2023-01-28T09:23:16.542Z,82.54
2023-01-28T09:25:43.190Z,79.76
2023-01-28T09:28:09.428Z,79.76
2023-01-28T09:30:38.162Z,82.35
2023-01-28T09:33:06.127Z,80.53
2023-01-28T09:35:33.340Z,80.76
2023-01-28T09:37:59.615Z,80.46
2023-01-28T09:40:37.308Z,80.59
2023-01-28T09:43:49.018Z,81.38
2023-01-28T09:46:17.747Z,82.00
2023-01-28T09:48:47.493Z,81.50
2023-01-28T09:51:35.625Z,81.86
2023-01-28T09:54:10.285Z,81.93
2023-01-28T09:56:44.952Z,81.52
2023-01-28T09:59:18.872Z,82.30
2023-01-28T10:02:07.925Z,80.72
2023-01-28T10:04:42.755Z,83.14
2023-01-28T10:07:19.383Z,80.94
2023-01-28T10:10:01.578Z,81.01
2023-01-28T10:12:31.697Z,80.98
2023-01-28T10:15:28.087Z,81.90
2023-01-28T10:18:16.174Z,81.53
2023-01-28T10:21:05.987Z,81.49
2023-01-28T10:23:55.625Z,82.14
2023-01-28T10:26:42.982Z,82.32
2023-01-28T10:29:17.045Z,81.94
2023-01-28T10:31:52.652Z,81.08
2023-01-28T10:34:21.394Z,81.11
2023-01-28T10:36:49.299Z,81.21
2023-01-28T10:39:19.388Z,81.34
2023-01-28T10:41:57.418Z,82.90
2023-01-28T10:44:34.305Z,82.53
2023-01-28T10:47:10.264Z,82.62
2023-01-28T10:49:49.071Z,82.17
2023-01-28T10:52:15.977Z,83.68
2023-01-28T10:54:42.444Z,82.52
2023-01-28T10:57:17.550Z,83.27
2023-01-28T10:59:45.118Z,84.10
2023-01-28T11:02:23.657Z,84.17
2023-01-28T11:05:17.147Z,84.23
2023-01-28T11:07:50.382Z,84.87
2023-01-28T11:10:29.322Z,83.82
2023-01-28T11:12:57.454Z,84.83
2023-01-28T11:15:24.542Z,84.64
2023-01-28T11:17:59.912Z,84.31
2023-01-28T11:20:28.755Z,84.26
2023-01-28T11:22:57.026Z,84.83
2023-01-28T11:25:34.246Z,85.32
2023-01-28T11:28:04.331Z,84.70
2023-01-28T11:30:34.152Z,85.89
2023-01-28T11:33:15.704Z,85.01
2023-01-28T11:35:51.444Z,85.84
2023-01-28T11:38:20.949Z,86.88
2023-01-28T11:40:52.653Z,85.89
2023-01-28T11:43:22.880Z,85.23
2023-01-28T11:46:05.048Z,84.64
2023-01-28T11:48:55.348Z,84.14
2023-01-28T11:51:36.091Z,84.11
2023-01-28T11:54:26.356Z,84.19
2023-01-28T11:57:19.449Z,85.50
2023-01-28T11:59:55.059Z,85.06
2023-01-28T12:02:46.784Z,84.66
2023-01-28T12:05:47.348Z,85.35
2023-01-28T12:08:24.324Z,84.54
2023-01-28T12:11:12.403Z,83.73
2023-01-28T12:14:11.918Z,82.45
2023-01-28T12:16:40.868Z,81.61
2023-01-28T12:19:12.361Z,83.17
2023-01-28T12:21:57.480Z,82.84
2023-01-28T12:24:24.840Z,81.87
2023-01-28T12:27:02.131Z,82.72
2023-01-28T12:29:46.958Z,82.62
2023-01-28T12:32:38.473Z,82.73
2023-01-28T12:35:11.438Z,82.75
2023-01-28T12:37:55.862Z,82.37
2023-01-28T12:40:44.359Z,83.55
2023-01-28T12:43:13.396Z,82.83
2023-01-28T12:45:45.393Z,84.03
2023-01-28T12:48:30.003Z,83.65
2023-01-28T12:51:23.678Z,82.12
2023-01-28T12:54:00.540Z,83.16
2023-01-28T12:56:30.920Z,82.83
2023-01-28T12:59:09.600Z,85.22
2023-01-28T13:01:47.539Z,84.33
2023-01-28T13:04:35.471Z,83.52
2023-01-28T13:07:10.616Z,83.97
2023-01-28T13:09:49.859Z,83.83
2023-01-28T13:12:19.285Z,84.97
2023-01-28T13:14:47.129Z,84.01
2023-01-28T13:17:29.332Z,84.73
2023-01-28T13:19:57.537Z,85.13
2023-01-28T13:22:28.882Z,83.15
2023-01-28T13:24:55.372Z,83.88
2023-01-28T13:27:28.516Z,83.64
2023-01-28T13:30:22.911Z,83.76
2023-01-28T13:33:08.714Z,82.73
2023-01-28T13:35:38.642Z,82.82
2023-01-28T13:38:08.273Z,83.67
2023-01-28T13:40:35.442Z,83.82
2023-01-28T13:43:25.102Z,82.83
2023-01-28T13:45:59.190Z,84.31
2023-01-28T13:48:51.847Z,82.84
2023-01-28T13:51:23.459Z,82.36
2023-01-28T13:54:01.837Z,84.54
2023-01-28T13:56:38.767Z,83.44
2023-01-28T13:59:33.830Z,84.29
2023-01-28T14:02:21.744Z,83.41
2023-01-28T14:04:54.429Z,83.70
2023-01-28T14:07:44.822Z,85.02
2023-01-28T14:10:16.998Z,85.51
2023-01-28T14:13:12.021Z,85.11
2023-01-28T14:16:01.564Z,84.80
2023-01-28T14:18:33.380Z,85.20
2023-01-28T14:21:03.931Z,84.10
2023-01-28T14:23:31.681Z,84.60
2023-01-28T14:26:06.115Z,84.56
2023-01-28T14:28:47.395Z,85.61
2023-01-28T14:31:27.151Z,84.45
2023-01-28T14:33:59.052Z,85.42
2023-01-28T14:36:25.611Z,85.77
2023-01-28T14:38:56.476Z,82.68
2023-01-28T14:41:27.639Z,84.54
2023-01-28T14:43:55.141Z,84.36
2023-01-28T14:46:32.410Z,86.83
2023-01-28T14:49:52.978Z,82.31
2023-01-28T14:52:46.884Z,84.35
2023-01-28T14:55:37.559Z,84.44
2023-01-28T14:58:11.438Z,84.49
2023-01-28T15:00:38.963Z,85.39
2023-01-28T15:03:24.769Z,82.95
2023-01-28T15:06:15.088Z,82.69
2023-01-28T15:08:42.167Z,82.67
2023-01-28T15:11:14.098Z,83.16
2023-01-28T15:13:44.163Z,83.02
2023-01-28T15:16:28.486Z,83.97
2023-01-28T15:18:58.566Z,84.87
2023-01-28T15:21:27.141Z,81.80
2023-01-28T15:23:59.260Z,85.70
2023-01-28T15:26:28.486Z,83.91
2023-01-28T15:28:55.822Z,82.90
2023-01-28T15:31:22.601Z,83.43
2023-01-28T15:34:01.219Z,84.94
2023-01-28T15:36:28.969Z,84.54
2023-01-28T15:38:57.035Z,83.68
2023-01-28T15:41:37.763Z,84.88
2023-01-28T15:44:04.779Z,82.45
2023-01-28T15:46:33.190Z,84.85
2023-01-28T15:49:03.790Z,84.24
2023-01-28T15:51:33.161Z,83.17
2023-01-28T15:54:04.947Z,83.40
2023-01-28T15:56:32.342Z,84.31
2023-01-28T15:59:10.105Z,84.68
2023-01-28T16:01:36.828Z,83.49
2023-01-28T16:04:06.243Z,84.70
2023-01-28T16:06:39.024Z,84.62
2023-01-28T16:09:17.330Z,84.88
2023-01-28T16:11:44.198Z,85.35
2023-01-28T16:14:27.559Z,88.17
2023-01-28T16:16:56.144Z,89.54
2023-01-28T16:19:36.811Z,90.37
2023-01-28T16:22:04.719Z,88.32
2023-01-28T16:24:35.425Z,89.30
2023-01-28T16:27:18.609Z,89.08
2023-01-28T16:29:45.342Z,88.19
2023-01-28T16:32:34.879Z,87.79
2023-01-28T16:35:02.568Z,89.09
2023-01-28T16:37:29.131Z,89.44
2023-01-28T16:39:57.377Z,89.68
2023-01-28T16:42:25.469Z,88.00
2023-01-28T16:44:52.101Z,88.37
2023-01-28T16:47:18.545Z,88.14
2023-01-28T16:49:45.950Z,87.76
2023-01-28T16:52:12.624Z,87.71
2023-01-28T16:54:42.543Z,88.53
2023-01-28T16:57:14.047Z,89.69
2023-01-28T16:59:41.146Z,88.91
2023-01-28T17:02:12.292Z,88.97
2023-01-28T17:04:39.139Z,88.34
2023-01-28T17:07:05.654Z,88.41
2023-01-28T17:09:32.785Z,88.38
2023-01-28T17:11:59.494Z,88.29
2023-01-28T17:14:26.106Z,88.22
2023-01-28T17:16:52.284Z,87.64
2023-01-28T17:19:18.978Z,87.70
2023-01-28T17:21:47.673Z,88.88
2023-01-28T17:24:14.566Z,88.07
2023-01-28T17:26:40.877Z,88.30
2023-01-28T17:29:07.811Z,89.11
2023-01-28T17:31:35.640Z,88.30
2023-01-28T17:34:02.439Z,88.77
2023-01-28T17:36:28.851Z,88.26
2023-01-28T17:38:55.895Z,88.93
2023-01-28T17:41:22.616Z,88.63
2023-01-28T17:43:53.522Z,87.56
2023-01-28T17:46:21.274Z,88.67
2023-01-28T17:48:48.072Z,87.63
2023-01-28T17:51:18.319Z,87.67
2023-01-28T17:53:49.692Z,87.25
2023-01-28T17:56:18.694Z,88.01
2023-01-28T17:58:50.301Z,87.62
2023-01-28T18:01:16.876Z,88.08
2023-01-28T18:03:43.706Z,88.57
2023-01-28T18:06:10.227Z,88.77
2023-01-28T18:08:37.110Z,89.17
2023-01-28T18:11:08.263Z,88.44
2023-01-28T18:13:39.634Z,88.82
2023-01-28T18:16:08.631Z,87.79
2023-01-28T18:18:35.239Z,88.15
2023-01-28T18:21:04.168Z,89.19
2023-01-28T18:23:32.446Z,88.02
2023-01-28T18:26:01.008Z,88.36
2023-01-28T18:28:28.439Z,88.81
2023-01-28T18:30:55.090Z,88.63
2023-01-28T18:33:22.936Z,88.53
2023-01-28T18:35:49.361Z,88.42
2023-01-28T18:38:17.851Z,88.30
2023-01-28T18:40:45.533Z,87.84
2023-01-28T18:43:14.902Z,88.08
2023-01-28T18:45:44.954Z,88.11
2023-01-28T18:48:11.815Z,88.27
2023-01-28T18:50:38.294Z,88.52
2023-01-28T18:53:05.229Z,87.73
2023-01-28T18:55:32.132Z,88.10
2023-01-28T18:57:58.862Z,87.80
2023-01-28T19:00:25.132Z,88.24
2023-01-28T19:02:51.586Z,87.63
2023-01-28T19:05:18.244Z,89.19
2023-01-28T19:07:44.679Z,89.22
2023-01-28T19:10:11.184Z,88.29
2023-01-28T19:12:37.790Z,88.58
2023-01-28T19:15:04.486Z,89.59
2023-01-28T19:17:33.957Z,90.51
2023-01-28T19:20:01.585Z,89.85
2023-01-28T19:22:28.286Z,89.84
2023-01-28T19:24:54.609Z,89.14
2023-01-28T19:27:21.345Z,89.40
2023-01-28T19:29:48.990Z,90.25
2023-01-28T19:32:15.667Z,90.48
2023-01-28T19:34:41.781Z,90.68
2023-01-28T19:37:08.622Z,90.14
2023-01-28T19:39:35.007Z,90.24
2023-01-28T19:42:01.673Z,89.89
2023-01-28T19:44:29.162Z,89.36
2023-01-28T19:46:56.319Z,89.66
2023-01-28T19:49:22.778Z,90.10
2023-01-28T19:51:49.575Z,89.66
2023-01-28T19:54:16.965Z,89.45
2023-01-28T19:56:43.939Z,90.26
2023-01-28T19:59:11.063Z,90.04
2023-01-28T20:01:37.895Z,90.33
2023-01-28T20:04:04.356Z,90.79
2023-01-28T20:06:31.889Z,90.31
2023-01-28T20:09:03.304Z,90.72
2023-01-28T20:11:30.122Z,91.29
2023-01-28T20:13:56.358Z,90.08
2023-01-28T20:16:25.350Z,90.68
2023-01-28T20:18:54.588Z,91.20
2023-01-28T20:21:22.296Z,91.77
2023-01-28T20:23:50.868Z,91.23
2023-01-28T20:26:20.585Z,91.34
2023-01-28T20:28:47.942Z,91.56
2023-01-28T20:31:14.924Z,92.30
2023-01-28T20:33:41.662Z,91.67
2023-01-28T20:36:10.550Z,91.67
2023-01-28T20:38:39.282Z,93.26
2023-01-28T20:41:11.072Z,93.50
2023-01-28T20:43:39.093Z,92.29
2023-01-28T20:46:10.080Z,92.81
2023-01-28T20:48:36.520Z,93.70
2023-01-28T20:51:08.675Z,93.09
2023-01-28T20:53:35.583Z,92.87
2023-01-28T20:56:03.292Z,93.14
2023-01-28T20:58:31.165Z,93.36
2023-01-28T21:00:57.772Z,93.24
2023-01-28T21:03:24.703Z,93.97
2023-01-28T21:05:52.220Z,93.50
2023-01-28T21:08:19.061Z,93.64
2023-01-28T21:10:47.366Z,93.49
2023-01-28T21:13:14.956Z,93.61
2023-01-28T21:15:51.667Z,93.94
2023-01-28T21:18:18.417Z,93.40
2023-01-28T21:20:45.302Z,93.99
2023-01-28T21:23:14.345Z,94.33
2023-01-28T21:25:42.567Z,94.49
2023-01-28T21:28:13.355Z,94.14
2023-01-28T21:30:40.333Z,94.05
2023-01-28T21:33:07.493Z,94.20
2023-01-28T21:35:39.278Z,93.55
2023-01-28T21:38:06.858Z,94.29
2023-01-28T21:40:34.529Z,94.31
2023-01-28T21:43:01.780Z,94.08
2023-01-28T21:45:28.634Z,94.46
2023-01-28T21:47:55.259Z,94.21
2023-01-28T21:50:22.920Z,94.65
2023-01-28T21:52:50.904Z,95.25
2023-01-28T21:55:17.749Z,94.89
2023-01-28T21:57:45.124Z,95.04
2023-01-28T22:00:12.417Z,95.01
2023-01-28T22:02:39.380Z,94.96
2023-01-28T22:05:07.185Z,95.71
2023-01-28T22:07:33.476Z,95.78
2023-01-28T22:10:00.604Z,95.73
2023-01-28T22:12:27.398Z,96.43
2023-01-28T22:14:54.233Z,95.92
2023-01-28T22:17:20.498Z,96.54
2023-01-28T22:19:47.483Z,96.59
2023-01-28T22:22:15.075Z,96.77
2023-01-28T22:24:41.821Z,97.05
2023-01-28T22:27:08.301Z,97.45
2023-01-28T22:29:34.905Z,97.97
2023-01-28T22:32:03.611Z,98.59
2023-01-28T22:34:30.125Z,98.26
2023-01-28T22:36:56.279Z,98.83
2023-01-28T22:39:22.785Z,98.67
2023-01-28T22:41:49.048Z,98.85
2023-01-28T22:44:15.679Z,99.58
2023-01-28T22:46:42.009Z,98.99
2023-01-28T22:49:10.463Z,99.42
2023-01-28T22:51:36.769Z,99.10
2023-01-28T22:54:03.374Z,99.75
2023-01-28T22:56:30.500Z,99.01
2023-01-28T22:58:59.803Z,99.14
2023-01-28T23:01:26.667Z,99.38
2023-01-28T23:03:54.965Z,98.31
2023-01-28T23:06:22.948Z,98.69
2023-01-28T23:08:51.000Z,99.32
2023-01-28T23:11:24.570Z,98.55
2023-01-28T23:14:14.092Z,98.25
2023-01-28T23:16:59.083Z,98.46
2023-01-28T23:19:44.646Z,98.25
2023-01-28T23:22:43.340Z,98.63
2023-01-28T23:25:10.142Z,98.85
2023-01-28T23:27:36.291Z,99.12
2023-01-28T23:30:03.545Z,99.13
2023-01-28T23:32:29.822Z,99.41
2023-01-28T23:34:56.525Z,99.52
2023-01-28T23:37:22.778Z,99.30
2023-01-28T23:39:49.199Z,99.40
2023-01-28T23:42:18.484Z,99.90
2023-01-28T23:44:45.061Z,99.16
2023-01-28T23:47:11.535Z,99.72
2023-01-28T23:49:38.739Z,99.50
2023-01-28T23:52:06.063Z,99.37
2023-01-28T23:54:32.520Z,99.81
2023-01-28T23:56:59.616Z,99.60
2023-01-28T23:59:26.509Z,99.73
